Roatan, Honduras

12:26 AM CST on August 29, 2015 (GMT -0600)
Parrot Tree Plantation | | Change Station
CLOSE
Current Station
Personal Weather Station
Location: Parrot Tree, BAY ISLANDS
Elevation: 144 ft
Nearby Weather Stations

Elev 144 ft 16.37 °N, 86.41 °W | Updated 12 minutes ago

Mostly Cloudy
Mostly Cloudy
83.7 °F
Feels Like 94 °F
N
4.7
Wind Variable Wind from South

Today
High -- | Low -- °F
--% Chance of Precip.
Yesterday
High -- | Low -- °F
Precip. -- in
5:32 AM 6:01 PM
Full, 100% visible
Pressure 29.89 in
Visibility 6.2 miles
Clouds Few 2600 ft
Mostly Cloudy 20000 ft
Heat Index 94 °F
Dew Point 78 °F
Humidity 82%
Rainfall 0.00 in
Snow Depth Not available.
UV 0 out of 12
Pollen Not available.
Air Quality Not available.
Flu Activity Not available.
METAR MHLC 290600Z 06003KT 9999 FEW026CB BKN200/ 27/26 Q1012 A2989 NOSIG
Pressure 29.89 in
Visibility 6.2 miles
Clouds Few 2600 ft
Mostly Cloudy 20000 ft
Heat Index 94 °F
Dew Point 78 °F
Humidity 82%
Rainfall 0.00 in
Snow Depth Not available.
UV 0 out of 12
Pollen Not available.
Air Quality Not available.
Flu Activity Not available.
METAR MHLC 290600Z 06003KT 9999 FEW026CB BKN200/ 27/26 Q1012 A2989 NOSIG

10-Day Weather Forecast

×

Almanac

Astronomy

Aug. 29, 2015 Rise Set
Actual Time
Civil Twilight
Nautical Twilight
Astronomical Twilight
Moon
Length of Visible Light
Length of Day
Tomorrow will be .
, % of the Moon is Illuminated

Today's Extremes

Country Highs Country Lows

Community

WunderPhotos

Upload Photos

1,850,622 photos uploaded!

WunderBlogs® & News

Nearby

Air Quality

  Air Quality AQ Index Pollutant
Not available.

Snow Depth

Station Depth Elevation

Earthquake Activity

City Distance Mag. Time & Date
Minimum magnitude displayed is 2.5.

Coastal Water Temperatures

Place Temperature

Stations

Nearby Weather Stations

Station Location Temp. Windchill Dew Point Humidity Wind Precip. Elev Updated Type